Time;durP1;ratioP1;P1;durP2;ratioP2;P2;SDS_P1;SDS_P2;PMS_P1;PMS_P2;Temp;Humidity;BMP_temperature;BMP_pressure;BME280_temperature;BME280_humidity;BME280_pressure;Samples;Min_cycle;Max_cycle;Signal;HPM_P1;HPM_P2
2021/08/12 00:00:34;;;;;;;9.38;7.90;;;;;;;17.43;74.64;100689.88;5053690;28;20056;-63
2021/08/12 00:03:03;;;;;;;10.88;8.57;;;;;;;17.42;74.62;100696.69;5053549;28;20053;-63
2021/08/12 00:05:34;;;;;;;11.85;8.57;;;;;;;17.43;74.81;100693.50;5038189;28;20053;-63
2021/08/12 00:08:01;;;;;;;10.70;8.80;;;;;;;17.44;74.85;100689.50;5034121;28;20436;-63
2021/08/12 00:10:29;;;;;;;10.05;8.13;;;;;;;17.46;74.78;100694.78;5033563;28;20049;-63
2021/08/12 00:12:56;;;;;;;11.27;9.18;;;;;;;17.46;75.02;100694.78;5033574;28;20080;-63
2021/08/12 00:15:27;;;;;;;12.93;9.18;;;;;;;17.47;74.82;100689.97;5035514;28;20414;-63
2021/08/12 00:17:54;;;;;;;9.25;8.30;;;;;;;17.48;74.96;100681.19;5033585;28;20060;-63
2021/08/12 00:20:23;;;;;;;12.55;8.60;;;;;;;17.45;75.02;100671.44;5033135;28;20052;-63
2021/08/12 00:22:51;;;;;;;10.57;9.40;;;;;;;17.37;75.03;100674.41;5033392;28;20071;-63
2021/08/12 00:25:18;;;;;;;10.98;9.77;;;;;;;17.35;75.10;100671.13;5049805;28;20405;-63
2021/08/12 00:27:46;;;;;;;10.05;8.82;;;;;;;17.33;75.16;100665.84;5052764;28;20386;-63
2021/08/12 00:30:14;;;;;;;11.05;9.27;;;;;;;17.33;75.21;100665.84;5052917;28;20076;-63
2021/08/12 00:32:41;;;;;;;12.27;9.73;;;;;;;17.35;75.04;100665.50;5053043;28;20063;-63
2021/08/12 00:35:10;;;;;;;11.20;9.02;;;;;;;17.36;74.80;100662.31;5048294;28;20052;-63
2021/08/12 00:37:39;;;;;;;9.55;8.20;;;;;;;17.34;75.01;100675.09;5052221;28;20057;-63
2021/08/12 00:40:08;;;;;;;10.70;8.73;;;;;;;17.31;74.86;100671.00;5052943;28;20481;-63
2021/08/12 00:42:36;;;;;;;11.05;8.38;;;;;;;17.28;74.91;100673.72;5052751;28;20056;-63
2021/08/12 00:45:04;;;;;;;9.68;8.68;;;;;;;17.28;74.74;100682.16;5051144;28;20049;-63
2021/08/12 00:47:31;;;;;;;11.90;8.98;;;;;;;17.23;74.95;100686.03;5052494;28;20060;-63
2021/08/12 00:49:58;;;;;;;10.95;8.70;;;;;;;17.21;75.05;100689.19;5052988;28;20049;-63
2021/08/12 00:52:26;;;;;;;9.75;8.27;;;;;;;17.23;75.22;100686.03;5052851;28;20478;-64
2021/08/12 00:54:55;;;;;;;10.65;8.80;;;;;;;17.29;75.46;100675.38;5042661;28;20053;-64
2021/08/12 00:57:22;;;;;;;12.18;8.45;;;;;;;17.28;75.50;100687.78;5032913;28;20065;-63
2021/08/12 00:59:50;;;;;;;10.60;8.73;;;;;;;17.26;75.42;100690.97;5032826;28;20049;-64
2021/08/12 01:02:17;;;;;;;10.52;8.43;;;;;;;17.29;75.29;100684.63;5033174;28;20057;-64
2021/08/12 01:04:46;;;;;;;9.02;8.00;;;;;;;17.30;75.13;100683.44;5032334;28;20053;-64
2021/08/12 01:07:21;;;;;;;13.40;8.10;;;;;;;17.30;74.97;100679.81;5032889;28;20049;-64
2021/08/12 01:09:54;;;;;;;10.30;7.65;;;;;;;17.29;74.95;100678.19;5035346;28;20045;-64
2021/08/12 01:12:32;;;;;;;10.63;8.23;;;;;;;17.26;74.84;100657.19;5050255;28;20544;-63
2021/08/12 01:15:04;;;;;;;10.27;8.55;;;;;;;17.24;74.78;100662.38;5052668;28;20060;-64
2021/08/12 01:17:36;;;;;;;9.82;8.73;;;;;;;17.24;74.85;100665.19;5052602;28;20056;-64
2021/08/12 01:20:41;;;;;;;10.85;9.23;;;;;;;17.18;74.70;100667.41;5047712;28;20061;-64
2021/08/12 01:23:13;;;;;;;11.20;9.30;;;;;;;17.10;75.06;100659.09;5032853;28;20050;-64
2021/08/12 01:25:43;;;;;;;11.82;9.93;;;;;;;17.14;74.97;100665.66;5032590;28;20434;-64
2021/08/12 01:28:18;;;;;;;11.50;9.23;;;;;;;17.10;74.92;100659.91;5032752;28;20064;-64
2021/08/12 01:30:57;;;;;;;11.68;9.57;;;;;;;17.06;75.09;100667.41;5032642;28;20049;-63
2021/08/12 01:33:35;;;;;;;11.15;9.25;;;;;;;17.08;75.12;100661.44;5033017;28;20498;-63
2021/08/12 01:36:07;;;;;;;12.15;9.35;;;;;;;17.05;75.08;100660.16;5033735;28;20057;-64
2021/08/12 01:38:37;;;;;;;12.60;9.20;;;;;;;17.00;75.27;100660.38;5036193;28;20065;-63
2021/08/12 01:41:06;;;;;;;13.52;9.43;;;;;;;16.96;75.47;100665.09;5036137;28;20045;-64
2021/08/12 01:43:37;;;;;;;12.50;9.40;;;;;;;17.00;75.74;100669.66;5037579;28;20483;-64
2021/08/12 01:46:07;;;;;;;12.23;9.68;;;;;;;17.03;75.91;100677.41;5036693;28;20053;-64
2021/08/12 01:48:36;;;;;;;11.48;9.05;;;;;;;17.03;76.15;100671.78;5036245;28;20060;-64
2021/08/12 01:51:06;;;;;;;9.43;8.25;;;;;;;17.02;76.04;100675.75;5035999;28;20049;-63
2021/08/12 01:53:34;;;;;;;10.50;8.80;;;;;;;17.04;75.74;100662.13;5036255;28;20414;-64
2021/08/12 01:56:02;;;;;;;9.75;8.75;;;;;;;17.04;75.71;100661.31;5036077;28;20064;-64
2021/08/12 01:58:31;;;;;;;9.80;8.77;;;;;;;17.02;75.28;100660.84;5055719;28;20348;-64
2021/08/12 02:01:00;;;;;;;10.45;8.45;;;;;;;17.02;74.90;100664.50;5055413;28;20053;-64
2021/08/12 02:03:29;;;;;;;13.88;8.85;;;;;;;16.97;74.97;100659.13;5056053;28;20057;-64
2021/08/12 02:05:58;;;;;;;11.25;9.77;;;;;;;16.88;75.45;100661.22;5055314;28;20536;-64
2021/08/12 02:08:27;;;;;;;14.15;10.50;;;;;;;16.86;75.43;100657.94;5056020;28;20474;-64
2021/08/12 02:10:54;;;;;;;16.13;10.90;;;;;;;16.86;75.59;100666.38;5055787;28;20486;-63
2021/08/12 02:13:24;;;;;;;12.00;10.35;;;;;;;16.81;75.61;100659.00;5054613;28;20061;-63
2021/08/12 02:15:52;;;;;;;12.63;10.52;;;;;;;16.78;75.84;100658.88;5046633;28;20068;-63
2021/08/12 02:18:19;;;;;;;13.07;10.05;;;;;;;16.76;75.55;100652.78;5035337;28;20061;-63
2021/08/12 02:20:49;;;;;;;12.70;9.45;;;;;;;16.75;75.32;100670.81;5035630;28;20050;-63
2021/08/12 02:23:22;;;;;;;13.05;9.93;;;;;;;16.66;75.73;100656.06;5045677;28;20048;-63
2021/08/12 02:25:56;;;;;;;11.88;9.95;;;;;;;16.68;75.53;100643.28;5035222;28;20060;-63
2021/08/12 02:28:24;;;;;;;11.18;9.98;;;;;;;16.68;75.35;100639.66;5035414;28;20497;-63
2021/08/12 02:30:54;;;;;;;11.80;9.60;;;;;;;16.64;75.19;100637.53;5034966;28;20053;-63
2021/08/12 02:33:26;;;;;;;11.70;9.90;;;;;;;16.58;75.56;100652.16;5035685;28;20060;-63
2021/08/12 02:35:55;;;;;;;12.20;10.35;;;;;;;16.53;75.57;100641.97;5034926;28;20065;-63
2021/08/12 02:38:25;;;;;;;14.30;11.18;;;;;;;16.48;75.58;100630.94;5034946;28;20057;-64
2021/08/12 02:40:57;;;;;;;13.52;10.63;;;;;;;16.46;75.82;100633.28;5034946;28;20053;-64
2021/08/12 02:43:26;;;;;;;15.63;11.68;;;;;;;16.44;76.21;100630.00;5035123;28;20050;-64
2021/08/12 02:45:55;;;;;;;14.68;11.57;;;;;;;16.35;76.38;100632.13;5034958;28;20061;-64
2021/08/12 02:48:25;;;;;;;13.60;10.93;;;;;;;16.38;76.19;100621.00;5033536;28;20068;-64
2021/08/12 02:50:53;;;;;;;12.02;10.13;;;;;;;16.40;76.04;100626.28;5035374;28;20072;-64
2021/08/12 02:53:22;;;;;;;12.60;10.60;;;;;;;16.37;75.92;100619.34;5035009;28;20049;-64
2021/08/12 02:55:50;;;;;;;13.77;11.25;;;;;;;16.33;75.83;100637.28;5053527;28;20053;-64
2021/08/12 02:58:20;;;;;;;12.43;11.13;;;;;;;16.33;76.11;100632.47;5054675;28;20072;-64
2021/08/12 03:00:47;;;;;;;13.23;11.15;;;;;;;16.28;76.51;100629.06;5055444;28;20053;-64
2021/08/12 03:03:18;;;;;;;12.85;10.73;;;;;;;16.27;76.22;100633.03;5054587;28;20057;-64
2021/08/12 03:05:46;;;;;;;13.35;10.77;;;;;;;16.21;76.28;100641.72;5053185;28;20053;-63
2021/08/12 03:08:16;;;;;;;13.83;11.20;;;;;;;16.19;75.96;100643.22;5054449;28;20060;-63
2021/08/12 03:10:44;;;;;;;12.07;10.20;;;;;;;16.12;76.16;100652.22;5054363;28;20061;-63
2021/08/12 03:13:12;;;;;;;17.00;12.30;;;;;;;16.08;76.22;100654.06;5054191;28;20056;-63
2021/08/12 03:15:42;;;;;;;14.90;11.35;;;;;;;16.10;76.24;100648.13;5037524;28;20495;-63
2021/08/12 03:18:10;;;;;;;14.27;11.93;;;;;;;16.08;76.07;100630.78;5034282;28;20399;-63
2021/08/12 03:20:40;;;;;;;16.55;11.63;;;;;;;16.05;76.01;100631.50;5034385;28;20132;-64
2021/08/12 03:23:08;;;;;;;14.52;10.07;;;;;;;16.01;75.99;100637.78;5034107;28;20470;-64
2021/08/12 03:25:35;;;;;;;13.45;11.48;;;;;;;15.96;76.04;100645.66;5053732;28;20391;-64
2021/08/12 03:28:02;;;;;;;11.98;10.75;;;;;;;15.95;76.23;100652.41;5054031;28;20452;-64
2021/08/12 03:30:30;;;;;;;12.00;10.35;;;;;;;15.93;76.36;100655.56;5053785;28;20057;-64
2021/08/12 03:32:59;;;;;;;13.23;11.25;;;;;;;15.90;76.24;100658.25;5053581;28;20053;-63
2021/08/12 03:35:26;;;;;;;29.08;13.45;;;;;;;15.88;76.45;100650.19;5053185;28;20086;-63
2021/08/12 03:37:53;;;;;;;14.75;11.40;;;;;;;15.87;76.45;100642.09;5053472;28;20061;-63
2021/08/12 03:40:20;;;;;;;12.98;11.05;;;;;;;15.86;76.20;100646.06;5053847;28;20044;-63
2021/08/12 03:42:48;;;;;;;12.77;11.35;;;;;;;15.85;76.11;100645.22;5053628;28;20051;-63
2021/08/12 03:45:15;;;;;;;16.02;12.38;;;;;;;15.81;76.14;100635.84;5037165;28;20057;-63
2021/08/12 03:47:42;;;;;;;15.13;11.35;;;;;;;15.84;76.05;100632.38;5033503;28;20417;-63
2021/08/12 03:50:11;;;;;;;12.32;10.55;;;;;;;15.87;75.94;100642.09;5037517;28;20482;-63
2021/08/12 03:52:39;;;;;;;15.30;12.82;;;;;;;15.81;76.03;100647.94;5053525;28;20053;-63
2021/08/12 03:55:07;;;;;;;14.18;11.25;;;;;;;15.82;76.22;100640.31;5047295;28;20049;-64
2021/08/12 03:57:34;;;;;;;15.15;11.43;;;;;;;15.82;76.38;100637.50;5053464;28;22030;-64
2021/08/12 04:00:05;;;;;;;14.52;11.65;;;;;;;15.83;76.26;100631.56;5051318;28;20075;-64
2021/08/12 04:02:32;;;;;;;15.30;10.98;;;;;;;15.86;76.28;100634.84;5033415;28;20049;-64
2021/08/12 04:05:00;;;;;;;12.30;10.80;;;;;;;15.87;76.45;100630.84;5033007;28;20056;-64
2021/08/12 04:07:29;;;;;;;15.45;12.38;;;;;;;15.79;76.98;100630.59;5033273;28;20517;-64
2021/08/12 04:09:56;;;;;;;16.10;12.03;;;;;;;15.82;76.77;100629.09;5033506;28;20053;-64
2021/08/12 04:12:24;;;;;;;12.75;11.40;;;;;;;15.90;77.04;100636.59;5052248;28;20486;-64
2021/08/12 04:14:51;;;;;;;13.90;11.77;;;;;;;15.95;76.89;100639.19;5053380;28;20057;-64
2021/08/12 04:17:18;;;;;;;15.02;10.60;;;;;;;15.98;76.80;100643.28;5053009;28;20431;-63
2021/08/12 04:19:46;;;;;;;11.75;9.68;;;;;;;16.06;76.42;100642.38;5042400;28;20049;-64
2021/08/12 04:22:13;;;;;;;11.93;9.57;;;;;;;16.09;76.32;100646.50;5033304;28;20053;-63
2021/08/12 04:24:42;;;;;;;13.23;8.52;;;;;;;16.12;76.34;100652.22;5044634;28;20052;-63
2021/08/12 04:27:10;;;;;;;12.10;8.73;;;;;;;16.19;76.55;100655.28;5052861;28;20057;-63
2021/08/12 04:29:37;;;;;;;14.38;9.32;;;;;;;16.26;74.92;100648.28;5052824;28;20482;-64
2021/08/12 04:32:05;;;;;;;9.20;8.07;;;;;;;16.30;74.99;100652.84;5050049;28;20052;-64
2021/08/12 04:34:33;;;;;;;9.93;8.82;;;;;;;16.35;74.45;100654.59;5032923;28;20054;-64
2021/08/12 04:37:00;;;;;;;10.52;8.43;;;;;;;16.36;74.61;100653.47;5032757;28;20466;-63
2021/08/12 04:39:27;;;;;;;9.60;8.30;;;;;;;16.47;74.35;100660.25;5032734;28;20068;-64
2021/08/12 04:41:56;;;;;;;9.63;8.00;;;;;;;16.49;74.26;100663.53;5033041;28;20060;-64
2021/08/12 04:44:24;;;;;;;9.75;7.90;;;;;;;16.56;74.12;100665.75;5033287;28;20057;-64
2021/08/12 04:46:51;;;;;;;10.57;8.65;;;;;;;16.62;73.89;100673.59;5033045;28;20060;-64
2021/08/12 04:49:18;;;;;;;10.23;8.10;;;;;;;16.72;73.48;100657.47;5033002;28;20383;-64
2021/08/12 04:51:47;;;;;;;11.95;9.35;;;;;;;16.78;73.10;100654.06;5032955;28;20058;-64
2021/08/12 04:54:16;;;;;;;10.93;8.32;;;;;;;16.83;73.28;100644.59;5032871;28;20394;-63
2021/08/12 04:56:43;;;;;;;10.90;9.20;;;;;;;16.84;73.59;100647.06;5032553;28;20064;-64
2021/08/12 04:59:12;;;;;;;10.88;8.70;;;;;;;16.91;73.57;100646.44;5032548;28;20056;-64
2021/08/12 05:01:39;;;;;;;10.53;8.60;;;;;;;16.97;73.59;100645.03;5032918;28;20057;-64
2021/08/12 05:04:07;;;;;;;10.57;9.07;;;;;;;17.07;73.43;100649.34;5032638;28;20064;-64
2021/08/12 05:06:34;;;;;;;12.55;9.50;;;;;;;17.15;73.72;100656.84;5032733;28;20506;-64
2021/08/12 05:09:02;;;;;;;11.60;9.88;;;;;;;17.26;72.93;100651.56;5032657;28;20065;-64
2021/08/12 05:11:29;;;;;;;13.10;9.48;;;;;;;17.36;73.21;100650.22;5037589;28;20482;-64
2021/08/12 05:13:56;;;;;;;12.68;10.45;;;;;;;17.46;73.00;100646.91;5051407;28;20496;-64
2021/08/12 05:16:25;;;;;;;10.20;9.10;;;;;;;17.52;72.62;100650.31;5032707;28;20486;-65
2021/08/12 05:18:53;;;;;;;16.73;10.75;;;;;;;17.57;72.66;100650.03;5046081;28;20405;-64
2021/08/12 05:21:20;;;;;;;11.07;9.88;;;;;;;17.61;72.37;100648.16;5046690;28;20064;-64
2021/08/12 05:23:47;;;;;;;11.63;9.75;;;;;;;17.64;72.49;100655.91;5038035;28;20386;-63
2021/08/12 05:26:15;;;;;;;12.52;10.70;;;;;;;17.66;72.44;100656.38;5042084;28;20053;-63
2021/08/12 05:28:42;;;;;;;13.48;10.85;;;;;;;17.64;72.65;100661.53;5036829;28;20056;-63
2021/08/12 05:31:10;;;;;;;13.23;11.60;;;;;;;17.68;72.50;100668.09;5034942;28;20062;-63
2021/08/12 05:33:39;;;;;;;12.43;10.52;;;;;;;17.67;72.37;100663.63;5032404;28;20060;-63
2021/08/12 05:36:06;;;;;;;13.88;11.70;;;;;;;17.73;72.27;100658.56;5031811;28;20053;-63
2021/08/12 05:38:34;;;;;;;13.80;10.73;;;;;;;17.76;72.15;100664.28;5047717;28;20053;-64
2021/08/12 05:41:01;;;;;;;11.90;10.52;;;;;;;17.77;72.25;100660.31;5051929;28;20413;-63
2021/08/12 05:43:30;;;;;;;12.00;10.27;;;;;;;17.82;72.52;100665.69;5051895;28;20052;-63
2021/08/12 05:45:57;;;;;;;12.20;10.70;;;;;;;17.88;72.26;100671.09;5051737;28;20055;-63
2021/08/12 05:48:24;;;;;;;14.52;11.27;;;;;;;17.95;72.25;100671.28;5050210;28;20052;-63
2021/08/12 05:50:53;;;;;;;13.75;11.23;;;;;;;18.10;71.77;100667.69;5051267;28;20064;-63
2021/08/12 05:53:21;;;;;;;13.37;9.80;;;;;;;18.20;71.40;100663.50;5051846;28;20049;-63
2021/08/12 05:55:49;;;;;;;13.23;10.77;;;;;;;18.33;71.07;100664.25;5052137;28;20394;-63
2021/08/12 05:58:17;;;;;;;14.15;11.07;;;;;;;18.35;71.04;100668.38;5051783;28;20064;-63
2021/08/12 06:00:44;;;;;;;15.00;11.00;;;;;;;18.48;70.64;100671.91;5042708;28;20049;-63
2021/08/12 06:03:13;;;;;;;13.30;10.30;;;;;;;18.55;70.14;100669.28;5031651;28;20056;-64
2021/08/12 06:05:41;;;;;;;14.70;11.35;;;;;;;18.73;69.70;100666.06;5032015;28;20073;-64
2021/08/12 06:08:13;;;;;;;14.27;11.57;;;;;;;18.89;69.35;100668.91;5032016;28;20057;-64
2021/08/12 06:10:41;;;;;;;15.00;12.07;;;;;;;18.93;69.00;100672.66;5032273;28;20053;-64
2021/08/12 06:13:09;;;;;;;14.10;11.68;;;;;;;19.08;68.59;100668.97;5031673;28;20061;-64
2021/08/12 06:15:36;;;;;;;14.82;11.57;;;;;;;19.18;68.27;100662.75;5049145;28;20053;-64
2021/08/12 06:18:06;;;;;;;14.95;11.45;;;;;;;19.25;68.00;100674.19;5051868;28;20059;-64
2021/08/12 06:20:34;;;;;;;13.68;11.57;;;;;;;19.35;67.80;100680.47;5050243;28;20049;-64
2021/08/12 06:23:01;;;;;;;13.68;11.63;;;;;;;19.30;68.25;100678.75;5037291;28;20482;-64
2021/08/12 06:25:30;;;;;;;14.43;12.23;;;;;;;19.21;68.57;100675.31;5053084;28;20076;-64
2021/08/12 06:27:57;;;;;;;14.65;11.75;;;;;;;19.34;68.50;100665.53;5055430;28;20060;-64
2021/08/12 06:30:25;;;;;;;14.82;12.57;;;;;;;19.26;68.28;100666.56;5044958;28;20053;-64
2021/08/12 06:32:52;;;;;;;14.88;11.40;;;;;;;19.42;67.93;100669.31;5035531;28;20059;-64
2021/08/12 06:35:20;;;;;;;13.38;11.43;;;;;;;19.43;68.26;100662.50;5035057;28;20052;-64
2021/08/12 06:37:49;;;;;;;14.45;11.68;;;;;;;19.48;67.89;100654.53;5035239;28;20065;-64
2021/08/12 06:40:18;;;;;;;13.45;12.00;;;;;;;19.55;68.12;100658.69;5035165;28;20532;-64
2021/08/12 06:42:47;;;;;;;13.48;11.23;;;;;;;19.81;67.71;100673.00;5036124;28;20076;-63
2021/08/12 06:45:15;;;;;;;13.75;10.82;;;;;;;19.97;67.39;100666.44;5034629;28;20056;-64
2021/08/12 06:47:43;;;;;;;12.05;10.85;;;;;;;20.12;67.02;100665.56;5045691;28;20045;-63
2021/08/12 06:50:10;;;;;;;13.13;10.57;;;;;;;20.24;66.93;100659.72;5054689;28;20497;-63
2021/08/12 06:52:38;;;;;;;11.68;9.70;;;;;;;20.41;66.15;100661.25;5055191;28;20052;-63
2021/08/12 06:55:06;;;;;;;16.27;10.68;;;;;;;20.62;65.96;100659.97;5043448;28;20060;-63
2021/08/12 06:57:34;;;;;;;11.68;9.48;;;;;;;20.76;66.07;100659.41;5034489;28;20053;-63
2021/08/12 07:00:03;;;;;;;11.02;9.35;;;;;;;20.94;64.97;100654.84;5050043;28;20064;-64
2021/08/12 07:02:31;;;;;;;11.63;8.82;;;;;;;21.13;64.75;100653.13;5049470;28;20091;-63
2021/08/12 07:04:59;;;;;;;12.13;8.90;;;;;;;21.37;64.72;100649.78;5044500;28;20052;-63
2021/08/12 07:07:26;;;;;;;12.82;9.23;;;;;;;21.65;64.08;100654.25;5051353;28;20474;-63
2021/08/12 07:09:54;;;;;;;11.23;8.95;;;;;;;21.95;64.15;100642.84;5052970;28;20057;-63
2021/08/12 07:12:21;;;;;;;12.57;8.40;;;;;;;22.21;62.33;100646.78;5047512;28;20059;-63
2021/08/12 07:14:49;;;;;;;9.13;7.00;;;;;;;22.49;61.67;100647.06;5051775;28;20053;-63
2021/08/12 07:17:18;;;;;;;10.98;7.03;;;;;;;22.78;61.08;100643.66;5049152;28;20493;-63
2021/08/12 07:19:45;;;;;;;9.45;7.35;;;;;;;23.06;60.24;100635.38;5052964;28;20516;-63
2021/08/12 07:22:12;;;;;;;9.23;7.10;;;;;;;23.54;59.11;100642.09;5047538;28;20067;-63
2021/08/12 07:24:40;;;;;;;9.05;6.70;;;;;;;24.35;56.60;100651.31;5049864;28;20049;-63
2021/08/12 07:27:07;;;;;;;11.18;6.97;;;;;;;25.11;55.67;100645.22;5052094;28;20418;-64
2021/08/12 07:29:34;;;;;;;7.47;5.78;;;;;;;25.43;54.71;100641.50;5053504;28;20064;-63
2021/08/12 07:32:03;;;;;;;7.57;6.75;;;;;;;26.02;52.21;100645.75;5052575;28;20061;-63
2021/08/12 07:34:31;;;;;;;7.57;5.93;;;;;;;26.26;51.79;100646.81;5052183;28;20053;-64
2021/08/12 07:36:59;;;;;;;8.05;6.72;;;;;;;26.85;50.51;100648.81;5052133;28;20057;-64
2021/08/12 07:39:26;;;;;;;7.50;6.03;;;;;;;27.59;48.46;100646.41;5052005;28;20052;-64
2021/08/12 07:41:53;;;;;;;8.35;5.95;;;;;;;28.33;46.41;100652.38;5047152;28;20061;-64
2021/08/12 07:44:21;;;;;;;8.50;5.93;;;;;;;28.86;45.09;100655.63;5052544;28;20049;-64
2021/08/12 07:46:48;;;;;;;7.57;5.07;;;;;;;29.64;43.15;100657.47;5046228;28;20057;-64
2021/08/12 07:49:15;;;;;;;6.43;4.95;;;;;;;30.45;41.08;100647.47;5052678;28;20056;-64
2021/08/12 07:51:44;;;;;;;8.23;4.95;;;;;;;31.14;40.43;100653.13;5046819;28;20068;-63
2021/08/12 07:54:11;;;;;;;8.15;4.97;;;;;;;31.69;38.30;100647.50;5052383;28;20044;-64
2021/08/12 07:56:39;;;;;;;6.45;5.50;;;;;;;32.22;37.40;100653.72;5045701;28;20049;-64
2021/08/12 07:59:06;;;;;;;7.90;4.70;;;;;;;32.77;37.21;100650.69;5051645;28;20397;-64
2021/08/12 08:01:33;;;;;;;7.80;5.20;;;;;;;33.31;35.73;100651.72;5051290;28;20421;-64
2021/08/12 08:04:02;;;;;;;7.32;5.45;;;;;;;33.63;33.92;100652.66;5043360;28;20073;-64
2021/08/12 08:06:29;;;;;;;7.15;5.55;;;;;;;34.15;33.04;100648.16;5049196;28;20517;-64
2021/08/12 08:08:58;;;;;;;7.28;5.25;;;;;;;34.89;31.51;100646.31;5051045;28;20057;-64
2021/08/12 08:11:25;;;;;;;7.82;5.32;;;;;;;35.72;29.88;100643.47;5050387;28;20053;-64
2021/08/12 08:13:53;;;;;;;6.80;5.25;;;;;;;34.90;30.58;100653.75;5050944;28;20060;-64
2021/08/12 08:16:22;;;;;;;7.95;5.75;;;;;;;34.13;31.73;100647.84;5049052;28;20056;-64
2021/08/12 08:18:49;;;;;;;6.15;5.45;;;;;;;34.06;31.82;100640.22;5048332;28;20383;-64
2021/08/12 08:21:16;;;;;;;7.13;5.03;;;;;;;34.99;31.64;100655.03;5048916;28;20056;-64
2021/08/12 08:23:44;;;;;;;9.10;5.53;;;;;;;35.58;30.31;100649.91;5050623;28;20059;-64
2021/08/12 08:26:13;;;;;;;7.13;6.33;;;;;;;35.99;28.81;100656.28;5050506;28;20409;-64
2021/08/12 08:28:40;;;;;;;7.57;5.75;;;;;;;36.34;28.04;100647.97;5050738;28;20479;-64
2021/08/12 08:31:07;;;;;;;8.63;6.65;;;;;;;36.94;27.25;100648.31;5045404;28;20063;-64
2021/08/12 08:33:36;;;;;;;11.05;7.38;;;;;;;37.29;26.54;100653.53;5049367;28;20395;-64
2021/08/12 08:36:04;;;;;;;8.73;7.72;;;;;;;38.06;25.39;100654.78;5048549;28;20049;-65
2021/08/12 08:38:31;;;;;;;7.70;7.00;;;;;;;38.21;25.09;100648.94;5039260;28;20057;-64
2021/08/12 08:41:00;;;;;;;10.73;7.33;;;;;;;38.35;24.57;100654.72;5040430;28;20061;-64
2021/08/12 08:43:33;;;;;;;;;;;;;;;38.49;24.93;100650.19;5051557;28;20056;-64
2021/08/12 08:46:02;;;;;;;8.00;7.18;;;;;;;39.64;23.85;100660.72;5044520;28;19921;-64
2021/08/12 08:48:32;;;;;;;8.32;6.88;;;;;;;40.08;22.33;100647.13;5049615;28;20056;-65
2021/08/12 08:51:00;;;;;;;8.68;7.78;;;;;;;40.51;21.11;100645.09;5045021;28;20057;-64
2021/08/12 08:53:30;;;;;;;7.82;7.10;;;;;;;40.79;20.76;100662.00;5050242;28;20057;-64
2021/08/12 08:55:58;;;;;;;8.90;7.80;;;;;;;40.71;20.39;100658.72;5049870;28;20398;-64
2021/08/12 08:58:26;;;;;;;7.90;7.03;;;;;;;40.90;20.44;100658.34;5050056;28;20128;-64
2021/08/12 09:00:54;;;;;;;7.32;5.88;;;;;;;41.35;20.38;100655.59;5044552;28;20053;-64
2021/08/12 09:03:22;;;;;;;6.60;5.90;;;;;;;42.60;18.74;100653.63;5049938;28;20049;-65
2021/08/12 09:05:49;;;;;;;8.57;7.78;;;;;;;42.60;18.24;100651.50;5048785;28;20053;-64
2021/08/12 09:08:17;;;;;;;;;;;;;;;41.19;19.35;100654.25;5049665;28;20060;-64
2021/08/12 09:10:44;;;;;;;8.90;8.02;;;;;;;41.67;19.81;100659.19;5044464;28;19928;-64
2021/08/12 09:13:12;;;;;;;7.68;6.88;;;;;;;42.71;18.66;100656.53;5050119;28;20061;-64
2021/08/12 09:15:41;;;;;;;8.63;7.80;;;;;;;43.46;17.90;100650.66;5046087;28;20053;-64
2021/08/12 09:18:24;;;;;;;8.68;7.80;;;;;;;43.69;17.50;100663.06;5050629;28;20056;-64
2021/08/12 09:20:53;;;;;;;9.43;6.80;;;;;;;44.63;16.95;100653.22;5044431;28;20049;-64
2021/08/12 09:23:26;;;;;;;8.27;7.18;;;;;;;45.16;16.71;100649.94;5049242;28;20052;-64
2021/08/12 09:25:53;;;;;;;8.02;7.32;;;;;;;44.82;16.04;100659.16;5044656;28;20482;-64
2021/08/12 09:28:23;;;;;;;8.48;7.68;;;;;;;44.33;17.47;100641.47;5050288;28;20052;-64
2021/08/12 09:31:10;;;;;;;7.57;6.88;;;;;;;43.81;17.34;100649.13;5044129;28;20049;-64
2021/08/12 09:33:55;;;;;;;7.65;6.82;;;;;;;44.60;16.82;100648.44;5048638;28;20058;-64
2021/08/12 09:36:27;;;;;;;8.18;6.85;;;;;;;44.92;16.10;100647.81;5044925;28;20071;-64
2021/08/12 09:39:13;;;;;;;7.60;6.78;;;;;;;44.36;17.32;100655.88;5049788;28;20135;-64
2021/08/12 09:41:46;;;;;;;8.18;6.15;;;;;;;43.19;18.39;100664.88;5049331;28;20071;-64
2021/08/12 09:44:39;;;;;;;6.85;5.60;;;;;;;42.78;18.97;100653.84;5046241;28;20053;-64
2021/08/12 09:47:09;;;;;;;6.88;6.22;;;;;;;43.15;19.08;100654.78;5043159;28;20049;-64
2021/08/12 09:49:52;;;;;;;6.93;6.18;;;;;;;43.31;18.83;100659.00;5049706;28;20052;-64
2021/08/12 09:52:38;;;;;;;6.55;5.95;;;;;;;42.98;19.08;100646.84;5044214;28;20055;-64
2021/08/12 09:55:09;;;;;;;6.82;6.07;;;;;;;43.57;18.58;100655.66;5049147;28;20075;-64
2021/08/12 09:57:42;;;;;;;7.85;6.78;;;;;;;45.01;17.02;100653.34;5049832;28;20048;-64
2021/08/12 10:00:12;;;;;;;7.40;6.40;;;;;;;45.62;17.10;100647.16;5046794;28;20064;-64
2021/08/12 10:02:39;;;;;;;7.60;6.90;;;;;;;45.98;16.40;100647.66;5053427;28;20049;-65
2021/08/12 10:05:13;;;;;;;7.82;6.63;;;;;;;46.55;15.75;100644.56;5053049;28;20045;-65
2021/08/12 10:07:44;;;;;;;7.45;6.50;;;;;;;46.71;15.42;100639.69;5053087;28;20052;-65
2021/08/12 10:10:16;;;;;;;8.65;6.20;;;;;;;45.27;16.56;100635.09;5053567;28;20057;-65
2021/08/12 10:12:47;;;;;;;7.35;5.90;;;;;;;43.92;17.98;100643.16;5052909;28;20060;-64
2021/08/12 10:15:16;;;;;;;7.82;7.13;;;;;;;42.58;18.36;100645.38;5052465;28;20060;-64
2021/08/12 10:17:45;;;;;;;8.15;7.35;;;;;;;43.66;18.17;100642.81;5051355;28;20052;-64
2021/08/12 10:20:18;;;;;;;6.88;6.28;;;;;;;43.77;17.78;100639.81;5047640;28;20056;-64
2021/08/12 10:22:48;;;;;;;8.10;7.28;;;;;;;43.92;17.47;100649.03;5053659;28;20048;-64
2021/08/12 10:25:16;;;;;;;7.38;6.65;;;;;;;43.82;17.84;100644.03;5052953;28;20048;-64
2021/08/12 10:27:45;;;;;;;6.97;6.20;;;;;;;43.98;17.95;100646.06;5054029;28;20056;-64
2021/08/12 10:30:13;;;;;;;5.85;5.32;;;;;;;43.77;17.64;100636.88;5051930;28;20076;-65
2021/08/12 10:32:49;;;;;;;7.03;5.70;;;;;;;43.20;18.49;100648.13;5045885;28;20069;-64
2021/08/12 10:35:18;;;;;;;6.38;5.60;;;;;;;44.20;16.83;100645.06;5052626;28;20061;-64
2021/08/12 10:37:45;;;;;;;6.20;5.60;;;;;;;44.40;16.42;100640.09;5052480;28;20048;-64
2021/08/12 10:40:14;;;;;;;5.68;5.07;;;;;;;44.55;16.99;100622.84;5052960;28;20053;-64
2021/08/12 10:42:46;;;;;;;4.95;4.25;;;;;;;44.90;15.92;100630.75;5052025;28;20053;-64
2021/08/12 10:45:17;;;;;;;4.97;4.47;;;;;;;44.28;16.76;100622.56;5041898;28;20544;-64
2021/08/12 10:47:47;;;;;;;4.60;4.20;;;;;;;45.57;15.98;100610.56;5058166;28;20053;-64
2021/08/12 10:51:00;;;;;;;5.55;4.28;;;;;;;46.64;14.88;100611.66;5050727;28;20063;-64
2021/08/12 10:53:28;;;;;;;5.30;4.80;;;;;;;46.99;14.48;100612.59;5048002;28;20049;-64
2021/08/12 10:56:18;;;;;;;5.10;4.70;;;;;;;47.58;13.68;100607.22;5052109;28;20060;-64
2021/08/12 10:58:51;;;;;;;5.20;4.80;;;;;;;47.69;14.46;100611.28;5052402;28;20060;-64
2021/08/12 11:01:30;;;;;;;5.22;4.72;;;;;;;48.20;13.29;100609.97;5049253;28;20078;-64
2021/08/12 11:04:02;;;;;;;5.30;4.78;;;;;;;48.31;13.57;100609.72;5052178;28;20049;-65
2021/08/12 11:06:40;;;;;;;4.80;4.40;;;;;;;48.51;11.90;100608.88;5046884;28;20514;-64
2021/08/12 11:09:08;;;;;;;4.65;4.10;;;;;;;46.56;13.55;100601.94;5051291;28;20052;-64
2021/08/12 11:12:06;;;;;;;4.50;4.10;;;;;;;45.87;14.06;100604.50;5046770;28;20127;-64
2021/08/12 11:14:52;;;;;;;4.70;3.83;;;;;;;45.30;15.36;100609.63;5052069;28;20441;-64
2021/08/12 11:17:21;;;;;;;5.73;4.60;;;;;;;45.70;15.50;100609.88;5048652;28;20433;-64
2021/08/12 11:19:50;;;;;;;5.03;4.50;;;;;;;45.20;15.41;100608.44;5052933;28;20056;-64
2021/08/12 11:22:37;;;;;;;4.85;4.18;;;;;;;44.98;15.65;100611.13;5047415;28;20048;-64
2021/08/12 11:25:09;;;;;;;5.10;4.03;;;;;;;45.13;16.32;100610.66;5052670;28;20052;-64
2021/08/12 11:27:44;;;;;;;5.53;4.05;;;;;;;43.43;16.85;100615.75;5052809;28;20045;-64
2021/08/12 11:30:40;;;;;;;5.60;4.28;;;;;;;43.45;17.14;100618.94;5046482;28;20056;-64